Terminal Aerodrome Forecast
Issued by NWS

Home | Current Version | Previous Version | Text Only | Print | Product List | Glossary On
Versions: 1 2 3 4 5 6 7 8 9 10 11 12 13 14
000
FTUS46 KSEW 222300
TAFCLM
TAF
KCLM 222320Z 2300/2324 VRB04KT P6SM SKC
     FM230500 25005KT P6SM VCFG SKC
     FM231000 26005KT 5SM BR SCT002
      TEMPO 2311/2315 1/2SM FG VV001
     FM231600 VRB03KT P6SM SCT250=

USA.gov is the U.S. government's official web portal to all federal, state and local government web resources and services.